sensor_id;sensor_type;location;lat;lon;timestamp;P1;durP1;ratioP1;P2;durP2;ratioP2
55800;SDS011;41730;51.960;20.158;2023-07-13T00:02:22;9.70;;;6.90;;
55800;SDS011;41730;51.960;20.158;2023-07-13T00:04:55;9.90;;;7.10;;
55800;SDS011;41730;51.960;20.158;2023-07-13T00:07:26;8.60;;;7.10;;
55800;SDS011;41730;51.960;20.158;2023-07-13T00:09:59;9.10;;;6.90;;
55800;SDS011;41730;51.960;20.158;2023-07-13T00:12:35;9.50;;;7.10;;
55800;SDS011;41730;51.960;20.158;2023-07-13T00:15:12;12.80;;;7.10;;
55800;SDS011;41730;51.960;20.158;2023-07-13T00:17:51;10.60;;;7.00;;
55800;SDS011;41730;51.960;20.158;2023-07-13T00:20:23;11.00;;;7.10;;
55800;SDS011;41730;51.960;20.158;2023-07-13T00:22:55;13.60;;;7.10;;
55800;SDS011;41730;51.960;20.158;2023-07-13T00:25:27;9.60;;;7.00;;
55800;SDS011;41730;51.960;20.158;2023-07-13T00:28:00;12.50;;;7.30;;
55800;SDS011;41730;51.960;20.158;2023-07-13T00:30:32;9.80;;;6.90;;
55800;SDS011;41730;51.960;20.158;2023-07-13T00:33:03;8.40;;;6.60;;
55800;SDS011;41730;51.960;20.158;2023-07-13T00:35:45;11.50;;;7.50;;
55800;SDS011;41730;51.960;20.158;2023-07-13T00:38:16;10.60;;;7.50;;
55800;SDS011;41730;51.960;20.158;2023-07-13T00:40:48;10.10;;;7.40;;
55800;SDS011;41730;51.960;20.158;2023-07-13T00:43:21;9.30;;;7.00;;
55800;SDS011;41730;51.960;20.158;2023-07-13T00:48:59;11.60;;;7.20;;
55800;SDS011;41730;51.960;20.158;2023-07-13T00:54:06;9.80;;;7.00;;
55800;SDS011;41730;51.960;20.158;2023-07-13T00:56:40;9.30;;;6.50;;
55800;SDS011;41730;51.960;20.158;2023-07-13T00:59:19;12.70;;;7.20;;
55800;SDS011;41730;51.960;20.158;2023-07-13T01:01:51;8.40;;;6.60;;
55800;SDS011;41730;51.960;20.158;2023-07-13T01:04:25;9.50;;;7.40;;
55800;SDS011;41730;51.960;20.158;2023-07-13T01:06:57;8.30;;;6.90;;
55800;SDS011;41730;51.960;20.158;2023-07-13T01:09:29;10.10;;;7.00;;
55800;SDS011;41730;51.960;20.158;2023-07-13T01:12:01;8.70;;;7.20;;
55800;SDS011;41730;51.960;20.158;2023-07-13T01:14:33;10.30;;;7.50;;
55800;SDS011;41730;51.960;20.158;2023-07-13T01:17:05;13.00;;;7.40;;
55800;SDS011;41730;51.960;20.158;2023-07-13T01:19:39;9.30;;;7.60;;
55800;SDS011;41730;51.960;20.158;2023-07-13T01:22:12;10.70;;;7.50;;
55800;SDS011;41730;51.960;20.158;2023-07-13T01:24:47;9.90;;;7.20;;
55800;SDS011;41730;51.960;20.158;2023-07-13T01:27:21;11.10;;;7.70;;
55800;SDS011;41730;51.960;20.158;2023-07-13T01:29:54;7.90;;;7.10;;
55800;SDS011;41730;51.960;20.158;2023-07-13T01:32:32;11.70;;;7.20;;
55800;SDS011;41730;51.960;20.158;2023-07-13T01:35:06;13.10;;;7.80;;
55800;SDS011;41730;51.960;20.158;2023-07-13T01:37:37;9.10;;;7.70;;
55800;SDS011;41730;51.960;20.158;2023-07-13T01:40:10;12.70;;;7.40;;
55800;SDS011;41730;51.960;20.158;2023-07-13T01:42:44;11.10;;;7.40;;
55800;SDS011;41730;51.960;20.158;2023-07-13T01:45:15;9.80;;;7.70;;
55800;SDS011;41730;51.960;20.158;2023-07-13T01:47:47;9.20;;;7.70;;
55800;SDS011;41730;51.960;20.158;2023-07-13T01:50:19;12.50;;;8.40;;
55800;SDS011;41730;51.960;20.158;2023-07-13T01:52:50;10.60;;;7.70;;
55800;SDS011;41730;51.960;20.158;2023-07-13T01:55:22;11.50;;;7.60;;
55800;SDS011;41730;51.960;20.158;2023-07-13T01:57:54;11.40;;;7.40;;
55800;SDS011;41730;51.960;20.158;2023-07-13T02:00:26;11.70;;;7.60;;
55800;SDS011;41730;51.960;20.158;2023-07-13T02:02:58;11.00;;;7.80;;
55800;SDS011;41730;51.960;20.158;2023-07-13T02:05:30;10.50;;;7.80;;
55800;SDS011;41730;51.960;20.158;2023-07-13T02:08:01;11.10;;;8.10;;
55800;SDS011;41730;51.960;20.158;2023-07-13T02:10:33;14.20;;;8.50;;
55800;SDS011;41730;51.960;20.158;2023-07-13T02:13:06;12.10;;;8.10;;
55800;SDS011;41730;51.960;20.158;2023-07-13T02:15:39;12.60;;;7.30;;
55800;SDS011;41730;51.960;20.158;2023-07-13T02:18:12;10.50;;;7.60;;
55800;SDS011;41730;51.960;20.158;2023-07-13T02:20:45;10.00;;;7.70;;
55800;SDS011;41730;51.960;20.158;2023-07-13T02:23:17;8.80;;;7.40;;
55800;SDS011;41730;51.960;20.158;2023-07-13T02:25:49;11.40;;;7.20;;
55800;SDS011;41730;51.960;20.158;2023-07-13T02:28:23;11.10;;;7.60;;
55800;SDS011;41730;51.960;20.158;2023-07-13T02:30:55;12.00;;;7.80;;
55800;SDS011;41730;51.960;20.158;2023-07-13T02:33:33;9.40;;;6.90;;
55800;SDS011;41730;51.960;20.158;2023-07-13T02:36:05;12.90;;;7.70;;
55800;SDS011;41730;51.960;20.158;2023-07-13T02:38:38;12.10;;;7.70;;
55800;SDS011;41730;51.960;20.158;2023-07-13T02:41:09;13.50;;;7.70;;
55800;SDS011;41730;51.960;20.158;2023-07-13T02:43:41;14.20;;;8.90;;
55800;SDS011;41730;51.960;20.158;2023-07-13T02:46:12;11.20;;;7.50;;
55800;SDS011;41730;51.960;20.158;2023-07-13T02:48:44;11.90;;;7.90;;
55800;SDS011;41730;51.960;20.158;2023-07-13T02:51:16;10.40;;;7.80;;
55800;SDS011;41730;51.960;20.158;2023-07-13T02:53:48;9.40;;;7.20;;
55800;SDS011;41730;51.960;20.158;2023-07-13T02:56:22;9.10;;;7.40;;
55800;SDS011;41730;51.960;20.158;2023-07-13T02:58:55;13.90;;;8.10;;
55800;SDS011;41730;51.960;20.158;2023-07-13T03:01:26;10.70;;;7.40;;
55800;SDS011;41730;51.960;20.158;2023-07-13T03:03:58;10.20;;;7.40;;
55800;SDS011;41730;51.960;20.158;2023-07-13T03:06:31;10.00;;;7.70;;
55800;SDS011;41730;51.960;20.158;2023-07-13T03:09:04;15.10;;;8.20;;
55800;SDS011;41730;51.960;20.158;2023-07-13T03:11:36;12.30;;;7.90;;
55800;SDS011;41730;51.960;20.158;2023-07-13T03:14:08;9.00;;;7.90;;
55800;SDS011;41730;51.960;20.158;2023-07-13T03:16:40;9.60;;;7.30;;
55800;SDS011;41730;51.960;20.158;2023-07-13T03:19:11;15.10;;;7.20;;
55800;SDS011;41730;51.960;20.158;2023-07-13T03:21:43;17.00;;;7.60;;
55800;SDS011;41730;51.960;20.158;2023-07-13T03:24:15;11.70;;;8.20;;
55800;SDS011;41730;51.960;20.158;2023-07-13T03:26:50;13.70;;;9.30;;
55800;SDS011;41730;51.960;20.158;2023-07-13T03:29:25;14.70;;;8.50;;
55800;SDS011;41730;51.960;20.158;2023-07-13T03:32:00;12.10;;;8.10;;
55800;SDS011;41730;51.960;20.158;2023-07-13T03:34:32;9.10;;;7.80;;
55800;SDS011;41730;51.960;20.158;2023-07-13T03:37:05;8.90;;;6.90;;
55800;SDS011;41730;51.960;20.158;2023-07-13T03:39:36;12.20;;;7.20;;
55800;SDS011;41730;51.960;20.158;2023-07-13T03:42:08;9.40;;;7.20;;
55800;SDS011;41730;51.960;20.158;2023-07-13T03:44:40;13.10;;;7.00;;
55800;SDS011;41730;51.960;20.158;2023-07-13T03:47:17;13.00;;;7.80;;
55800;SDS011;41730;51.960;20.158;2023-07-13T03:49:49;13.20;;;7.50;;
55800;SDS011;41730;51.960;20.158;2023-07-13T03:52:21;10.90;;;6.60;;
55800;SDS011;41730;51.960;20.158;2023-07-13T03:54:53;12.90;;;7.70;;
55800;SDS011;41730;51.960;20.158;2023-07-13T03:57:24;10.80;;;6.60;;
55800;SDS011;41730;51.960;20.158;2023-07-13T03:59:56;8.60;;;6.60;;
55800;SDS011;41730;51.960;20.158;2023-07-13T04:02:30;9.90;;;7.00;;
55800;SDS011;41730;51.960;20.158;2023-07-13T04:05:01;11.10;;;7.10;;
55800;SDS011;41730;51.960;20.158;2023-07-13T04:07:33;10.10;;;7.50;;
55800;SDS011;41730;51.960;20.158;2023-07-13T04:10:06;12.00;;;7.80;;
55800;SDS011;41730;51.960;20.158;2023-07-13T04:12:38;11.90;;;7.60;;
55800;SDS011;41730;51.960;20.158;2023-07-13T04:15:10;10.60;;;7.90;;
55800;SDS011;41730;51.960;20.158;2023-07-13T04:17:41;9.70;;;7.70;;
55800;SDS011;41730;51.960;20.158;2023-07-13T04:20:13;11.40;;;8.10;;
55800;SDS011;41730;51.960;20.158;2023-07-13T04:22:45;11.30;;;8.20;;
55800;SDS011;41730;51.960;20.158;2023-07-13T04:25:17;14.80;;;9.10;;
55800;SDS011;41730;51.960;20.158;2023-07-13T04:27:49;12.40;;;9.30;;
55800;SDS011;41730;51.960;20.158;2023-07-13T04:30:21;13.30;;;8.90;;
55800;SDS011;41730;51.960;20.158;2023-07-13T04:32:53;12.60;;;8.80;;
55800;SDS011;41730;51.960;20.158;2023-07-13T04:35:25;14.20;;;8.50;;
55800;SDS011;41730;51.960;20.158;2023-07-13T04:37:56;10.60;;;8.30;;
55800;SDS011;41730;51.960;20.158;2023-07-13T04:40:28;12.20;;;8.50;;
55800;SDS011;41730;51.960;20.158;2023-07-13T04:43:00;11.90;;;8.40;;
55800;SDS011;41730;51.960;20.158;2023-07-13T04:45:31;14.60;;;9.00;;
55800;SDS011;41730;51.960;20.158;2023-07-13T04:48:05;12.80;;;8.70;;
55800;SDS011;41730;51.960;20.158;2023-07-13T04:50:37;11.70;;;8.40;;
55800;SDS011;41730;51.960;20.158;2023-07-13T04:53:09;13.70;;;8.60;;
55800;SDS011;41730;51.960;20.158;2023-07-13T04:55:40;14.10;;;8.80;;
55800;SDS011;41730;51.960;20.158;2023-07-13T04:58:12;15.10;;;9.10;;
55800;SDS011;41730;51.960;20.158;2023-07-13T05:00:44;14.80;;;9.20;;
55800;SDS011;41730;51.960;20.158;2023-07-13T05:03:16;14.10;;;9.20;;
55800;SDS011;41730;51.960;20.158;2023-07-13T05:05:55;18.10;;;9.30;;
55800;SDS011;41730;51.960;20.158;2023-07-13T05:08:28;14.40;;;9.10;;
55800;SDS011;41730;51.960;20.158;2023-07-13T05:11:00;12.90;;;9.30;;
55800;SDS011;41730;51.960;20.158;2023-07-13T05:13:33;15.20;;;8.80;;
55800;SDS011;41730;51.960;20.158;2023-07-13T05:16:05;12.00;;;8.70;;
55800;SDS011;41730;51.960;20.158;2023-07-13T05:18:37;10.40;;;8.80;;
55800;SDS011;41730;51.960;20.158;2023-07-13T05:21:10;10.90;;;8.80;;
55800;SDS011;41730;51.960;20.158;2023-07-13T05:23:42;13.20;;;9.20;;
55800;SDS011;41730;51.960;20.158;2023-07-13T05:26:14;17.10;;;9.50;;
55800;SDS011;41730;51.960;20.158;2023-07-13T05:28:46;14.60;;;8.40;;
55800;SDS011;41730;51.960;20.158;2023-07-13T05:31:18;12.50;;;8.40;;
55800;SDS011;41730;51.960;20.158;2023-07-13T05:33:49;12.30;;;8.80;;
55800;SDS011;41730;51.960;20.158;2023-07-13T05:36:21;13.00;;;9.10;;
55800;SDS011;41730;51.960;20.158;2023-07-13T05:38:53;12.40;;;9.40;;
55800;SDS011;41730;51.960;20.158;2023-07-13T05:41:24;14.50;;;9.30;;
55800;SDS011;41730;51.960;20.158;2023-07-13T05:43:56;13.50;;;9.00;;
55800;SDS011;41730;51.960;20.158;2023-07-13T05:46:27;13.60;;;9.60;;
55800;SDS011;41730;51.960;20.158;2023-07-13T05:49:00;14.30;;;9.30;;
55800;SDS011;41730;51.960;20.158;2023-07-13T05:51:32;15.10;;;9.70;;
55800;SDS011;41730;51.960;20.158;2023-07-13T05:54:04;14.60;;;9.10;;
55800;SDS011;41730;51.960;20.158;2023-07-13T05:56:36;14.30;;;8.90;;
55800;SDS011;41730;51.960;20.158;2023-07-13T05:59:07;13.50;;;8.10;;
55800;SDS011;41730;51.960;20.158;2023-07-13T06:01:39;17.10;;;9.70;;
55800;SDS011;41730;51.960;20.158;2023-07-13T06:04:12;15.10;;;9.10;;
55800;SDS011;41730;51.960;20.158;2023-07-13T06:06:44;13.90;;;8.30;;
55800;SDS011;41730;51.960;20.158;2023-07-13T06:09:15;11.20;;;7.90;;
55800;SDS011;41730;51.960;20.158;2023-07-13T06:11:47;13.70;;;8.30;;
55800;SDS011;41730;51.960;20.158;2023-07-13T06:14:19;14.60;;;8.40;;
55800;SDS011;41730;51.960;20.158;2023-07-13T06:16:50;10.70;;;6.50;;
55800;SDS011;41730;51.960;20.158;2023-07-13T06:19:22;8.70;;;6.80;;
55800;SDS011;41730;51.960;20.158;2023-07-13T06:21:54;9.80;;;6.60;;
55800;SDS011;41730;51.960;20.158;2023-07-13T06:24:26;10.00;;;7.20;;
55800;SDS011;41730;51.960;20.158;2023-07-13T06:26:59;9.80;;;6.40;;
55800;SDS011;41730;51.960;20.158;2023-07-13T06:29:31;9.00;;;6.60;;
55800;SDS011;41730;51.960;20.158;2023-07-13T06:32:03;7.00;;;5.60;;
55800;SDS011;41730;51.960;20.158;2023-07-13T06:34:36;8.20;;;6.10;;
55800;SDS011;41730;51.960;20.158;2023-07-13T06:37:10;9.20;;;5.70;;
55800;SDS011;41730;51.960;20.158;2023-07-13T06:39:42;7.00;;;5.50;;
55800;SDS011;41730;51.960;20.158;2023-07-13T06:42:15;10.00;;;5.40;;
55800;SDS011;41730;51.960;20.158;2023-07-13T06:44:49;8.40;;;5.30;;
55800;SDS011;41730;51.960;20.158;2023-07-13T06:47:21;9.40;;;5.90;;
55800;SDS011;41730;51.960;20.158;2023-07-13T06:49:53;10.30;;;5.80;;
55800;SDS011;41730;51.960;20.158;2023-07-13T06:52:25;7.70;;;5.10;;
55800;SDS011;41730;51.960;20.158;2023-07-13T06:54:56;6.50;;;4.30;;
55800;SDS011;41730;51.960;20.158;2023-07-13T06:57:28;7.40;;;4.60;;
55800;SDS011;41730;51.960;20.158;2023-07-13T07:00:00;7.10;;;4.80;;
55800;SDS011;41730;51.960;20.158;2023-07-13T07:02:31;6.10;;;4.30;;
55800;SDS011;41730;51.960;20.158;2023-07-13T07:05:03;6.50;;;4.90;;
55800;SDS011;41730;51.960;20.158;2023-07-13T07:07:36;8.10;;;5.00;;
55800;SDS011;41730;51.960;20.158;2023-07-13T07:10:08;6.40;;;4.40;;
55800;SDS011;41730;51.960;20.158;2023-07-13T07:12:40;5.80;;;4.60;;
55800;SDS011;41730;51.960;20.158;2023-07-13T07:15:13;7.50;;;4.70;;
55800;SDS011;41730;51.960;20.158;2023-07-13T07:17:45;6.90;;;4.80;;
55800;SDS011;41730;51.960;20.158;2023-07-13T07:20:17;7.20;;;4.60;;
55800;SDS011;41730;51.960;20.158;2023-07-13T07:22:50;8.10;;;4.90;;
55800;SDS011;41730;51.960;20.158;2023-07-13T07:25:22;8.70;;;4.90;;
55800;SDS011;41730;51.960;20.158;2023-07-13T07:27:53;8.00;;;4.80;;
55800;SDS011;41730;51.960;20.158;2023-07-13T07:30:28;7.90;;;4.80;;
55800;SDS011;41730;51.960;20.158;2023-07-13T07:33:02;5.70;;;4.50;;
55800;SDS011;41730;51.960;20.158;2023-07-13T07:35:34;7.10;;;4.60;;
55800;SDS011;41730;51.960;20.158;2023-07-13T07:38:26;6.60;;;5.00;;
55800;SDS011;41730;51.960;20.158;2023-07-13T07:40:57;7.60;;;5.30;;
55800;SDS011;41730;51.960;20.158;2023-07-13T07:43:33;8.20;;;5.00;;
55800;SDS011;41730;51.960;20.158;2023-07-13T07:46:05;8.10;;;5.00;;
55800;SDS011;41730;51.960;20.158;2023-07-13T07:48:37;7.20;;;5.20;;
55800;SDS011;41730;51.960;20.158;2023-07-13T07:51:09;7.30;;;5.10;;
55800;SDS011;41730;51.960;20.158;2023-07-13T07:53:41;6.60;;;5.30;;
55800;SDS011;41730;51.960;20.158;2023-07-13T07:56:13;7.70;;;5.50;;
55800;SDS011;41730;51.960;20.158;2023-07-13T07:58:48;6.50;;;4.90;;
55800;SDS011;41730;51.960;20.158;2023-07-13T08:01:23;7.30;;;5.40;;
55800;SDS011;41730;51.960;20.158;2023-07-13T08:03:58;7.80;;;5.40;;
55800;SDS011;41730;51.960;20.158;2023-07-13T08:06:33;6.30;;;5.40;;
55800;SDS011;41730;51.960;20.158;2023-07-13T08:09:08;7.20;;;5.60;;
55800;SDS011;41730;51.960;20.158;2023-07-13T08:11:39;10.50;;;6.90;;
55800;SDS011;41730;51.960;20.158;2023-07-13T08:14:14;9.30;;;5.70;;
55800;SDS011;41730;51.960;20.158;2023-07-13T08:16:46;8.20;;;6.00;;
55800;SDS011;41730;51.960;20.158;2023-07-13T08:19:17;7.50;;;6.40;;
55800;SDS011;41730;51.960;20.158;2023-07-13T08:21:49;8.00;;;6.10;;
55800;SDS011;41730;51.960;20.158;2023-07-13T08:24:23;10.10;;;6.90;;
55800;SDS011;41730;51.960;20.158;2023-07-13T08:26:55;8.70;;;6.70;;
55800;SDS011;41730;51.960;20.158;2023-07-13T08:29:27;7.30;;;6.20;;
55800;SDS011;41730;51.960;20.158;2023-07-13T08:32:00;7.00;;;5.30;;
55800;SDS011;41730;51.960;20.158;2023-07-13T08:34:33;6.90;;;5.50;;
55800;SDS011;41730;51.960;20.158;2023-07-13T08:37:04;9.30;;;6.40;;
55800;SDS011;41730;51.960;20.158;2023-07-13T08:39:37;6.40;;;5.00;;
55800;SDS011;41730;51.960;20.158;2023-07-13T08:42:11;7.30;;;5.30;;
55800;SDS011;41730;51.960;20.158;2023-07-13T08:44:55;8.60;;;5.40;;
55800;SDS011;41730;51.960;20.158;2023-07-13T08:47:34;7.80;;;5.60;;
55800;SDS011;41730;51.960;20.158;2023-07-13T08:50:12;5.80;;;5.00;;
55800;SDS011;41730;51.960;20.158;2023-07-13T08:52:47;8.60;;;5.80;;
55800;SDS011;41730;51.960;20.158;2023-07-13T08:55:20;7.50;;;5.60;;
55800;SDS011;41730;51.960;20.158;2023-07-13T08:57:59;8.30;;;5.20;;
55800;SDS011;41730;51.960;20.158;2023-07-13T09:00:44;8.60;;;5.30;;
55800;SDS011;41730;51.960;20.158;2023-07-13T09:03:24;6.60;;;5.30;;
55800;SDS011;41730;51.960;20.158;2023-07-13T09:06:01;7.80;;;5.30;;
55800;SDS011;41730;51.960;20.158;2023-07-13T09:08:41;8.00;;;5.50;;
55800;SDS011;41730;51.960;20.158;2023-07-13T09:11:30;10.20;;;4.90;;
55800;SDS011;41730;51.960;20.158;2023-07-13T09:14:19;8.60;;;5.00;;
55800;SDS011;41730;51.960;20.158;2023-07-13T09:17:03;9.30;;;6.40;;
55800;SDS011;41730;51.960;20.158;2023-07-13T09:19:53;9.30;;;5.80;;
55800;SDS011;41730;51.960;20.158;2023-07-13T09:22:32;7.20;;;6.00;;
55800;SDS011;41730;51.960;20.158;2023-07-13T09:25:11;11.10;;;6.60;;
55800;SDS011;41730;51.960;20.158;2023-07-13T09:27:55;9.20;;;6.40;;
55800;SDS011;41730;51.960;20.158;2023-07-13T09:30:33;7.50;;;6.50;;
55800;SDS011;41730;51.960;20.158;2023-07-13T09:33:08;8.00;;;5.90;;
55800;SDS011;41730;51.960;20.158;2023-07-13T09:35:40;7.60;;;5.80;;
55800;SDS011;41730;51.960;20.158;2023-07-13T09:38:13;8.30;;;6.30;;
55800;SDS011;41730;51.960;20.158;2023-07-13T09:40:49;6.70;;;5.40;;
55800;SDS011;41730;51.960;20.158;2023-07-13T09:43:30;10.40;;;5.40;;
55800;SDS011;41730;51.960;20.158;2023-07-13T09:46:03;8.70;;;5.60;;
55800;SDS011;41730;51.960;20.158;2023-07-13T09:48:49;11.20;;;6.00;;
55800;SDS011;41730;51.960;20.158;2023-07-13T09:51:21;8.70;;;6.40;;
55800;SDS011;41730;51.960;20.158;2023-07-13T09:53:53;7.50;;;5.70;;
55800;SDS011;41730;51.960;20.158;2023-07-13T09:56:26;7.40;;;6.30;;
55800;SDS011;41730;51.960;20.158;2023-07-13T09:58:59;7.60;;;6.80;;
55800;SDS011;41730;51.960;20.158;2023-07-13T10:01:34;11.80;;;7.80;;
55800;SDS011;41730;51.960;20.158;2023-07-13T10:04:11;8.50;;;6.70;;
55800;SDS011;41730;51.960;20.158;2023-07-13T10:06:48;9.60;;;6.90;;
55800;SDS011;41730;51.960;20.158;2023-07-13T10:09:54;13.50;;;9.60;;
55800;SDS011;41730;51.960;20.158;2023-07-13T10:12:30;14.30;;;9.30;;
55800;SDS011;41730;51.960;20.158;2023-07-13T10:15:13;11.80;;;8.80;;
55800;SDS011;41730;51.960;20.158;2023-07-13T10:17:52;10.20;;;8.10;;
55800;SDS011;41730;51.960;20.158;2023-07-13T10:20:27;10.00;;;8.30;;
55800;SDS011;41730;51.960;20.158;2023-07-13T10:23:00;13.20;;;7.10;;
55800;SDS011;41730;51.960;20.158;2023-07-13T10:25:36;9.20;;;7.00;;
55800;SDS011;41730;51.960;20.158;2023-07-13T10:28:14;7.60;;;5.60;;
55800;SDS011;41730;51.960;20.158;2023-07-13T10:30:55;6.60;;;4.40;;
55800;SDS011;41730;51.960;20.158;2023-07-13T10:33:29;10.30;;;5.60;;
55800;SDS011;41730;51.960;20.158;2023-07-13T10:36:01;10.30;;;6.80;;
55800;SDS011;41730;51.960;20.158;2023-07-13T10:38:44;10.60;;;9.50;;
55800;SDS011;41730;51.960;20.158;2023-07-13T10:41:21;15.60;;;12.00;;
55800;SDS011;41730;51.960;20.158;2023-07-13T10:43:57;13.70;;;12.30;;
55800;SDS011;41730;51.960;20.158;2023-07-13T10:49:02;15.20;;;13.60;;
55800;SDS011;41730;51.960;20.158;2023-07-13T10:51:37;16.20;;;14.50;;
55800;SDS011;41730;51.960;20.158;2023-07-13T10:54:14;17.30;;;13.10;;
55800;SDS011;41730;51.960;20.158;2023-07-13T10:56:52;16.90;;;14.10;;
55800;SDS011;41730;51.960;20.158;2023-07-13T10:59:37;18.40;;;14.30;;
55800;SDS011;41730;51.960;20.158;2023-07-13T11:02:14;16.70;;;14.40;;
55800;SDS011;41730;51.960;20.158;2023-07-13T11:04:53;16.30;;;14.60;;
55800;SDS011;41730;51.960;20.158;2023-07-13T11:07:28;18.90;;;15.30;;
55800;SDS011;41730;51.960;20.158;2023-07-13T11:10:03;16.10;;;13.60;;
55800;SDS011;41730;51.960;20.158;2023-07-13T11:12:57;15.80;;;12.50;;
55800;SDS011;41730;51.960;20.158;2023-07-13T11:15:31;14.00;;;12.30;;
55800;SDS011;41730;51.960;20.158;2023-07-13T11:18:21;15.50;;;13.10;;
55800;SDS011;41730;51.960;20.158;2023-07-13T11:20:54;15.00;;;12.90;;
55800;SDS011;41730;51.960;20.158;2023-07-13T11:24:03;13.70;;;10.90;;
55800;SDS011;41730;51.960;20.158;2023-07-13T11:26:51;14.90;;;12.20;;
55800;SDS011;41730;51.960;20.158;2023-07-13T11:29:27;14.60;;;11.60;;
55800;SDS011;41730;51.960;20.158;2023-07-13T11:34:59;14.50;;;12.10;;
55800;SDS011;41730;51.960;20.158;2023-07-13T11:37:31;12.90;;;11.50;;
55800;SDS011;41730;51.960;20.158;2023-07-13T11:40:04;13.70;;;11.50;;
55800;SDS011;41730;51.960;20.158;2023-07-13T11:42:42;14.20;;;12.70;;
55800;SDS011;41730;51.960;20.158;2023-07-13T11:45:20;25.30;;;13.30;;
55800;SDS011;41730;51.960;20.158;2023-07-13T11:48:19;13.30;;;11.90;;
55800;SDS011;41730;51.960;20.158;2023-07-13T11:50:57;16.10;;;12.30;;
55800;SDS011;41730;51.960;20.158;2023-07-13T11:53:34;13.80;;;11.80;;
55800;SDS011;41730;51.960;20.158;2023-07-13T11:56:11;12.50;;;10.30;;
55800;SDS011;41730;51.960;20.158;2023-07-13T11:58:44;16.20;;;10.60;;
55800;SDS011;41730;51.960;20.158;2023-07-13T12:01:20;11.10;;;9.30;;
55800;SDS011;41730;51.960;20.158;2023-07-13T12:03:54;13.30;;;9.50;;
55800;SDS011;41730;51.960;20.158;2023-07-13T12:06:28;10.30;;;9.20;;
55800;SDS011;41730;51.960;20.158;2023-07-13T12:09:02;10.90;;;9.40;;
55800;SDS011;41730;51.960;20.158;2023-07-13T12:11:44;11.40;;;9.70;;
55800;SDS011;41730;51.960;20.158;2023-07-13T12:14:16;12.70;;;8.80;;
55800;SDS011;41730;51.960;20.158;2023-07-13T12:16:48;11.70;;;9.90;;
55800;SDS011;41730;51.960;20.158;2023-07-13T12:19:21;10.80;;;8.60;;
55800;SDS011;41730;51.960;20.158;2023-07-13T12:21:56;11.80;;;9.80;;
55800;SDS011;41730;51.960;20.158;2023-07-13T12:24:28;10.30;;;9.30;;
55800;SDS011;41730;51.960;20.158;2023-07-13T12:27:02;11.00;;;9.80;;
55800;SDS011;41730;51.960;20.158;2023-07-13T12:29:35;14.40;;;10.10;;
55800;SDS011;41730;51.960;20.158;2023-07-13T12:32:13;13.70;;;9.30;;
55800;SDS011;41730;51.960;20.158;2023-07-13T12:34:55;11.60;;;10.30;;
55800;SDS011;41730;51.960;20.158;2023-07-13T12:37:37;11.50;;;10.20;;
55800;SDS011;41730;51.960;20.158;2023-07-13T12:40:18;13.50;;;11.20;;
55800;SDS011;41730;51.960;20.158;2023-07-13T12:42:51;13.80;;;11.70;;
55800;SDS011;41730;51.960;20.158;2023-07-13T12:45:24;10.90;;;9.80;;
55800;SDS011;41730;51.960;20.158;2023-07-13T12:47:58;11.80;;;10.50;;
55800;SDS011;41730;51.960;20.158;2023-07-13T12:50:39;8.60;;;6.50;;
55800;SDS011;41730;51.960;20.158;2023-07-13T12:53:13;5.70;;;4.40;;
55800;SDS011;41730;51.960;20.158;2023-07-13T12:55:47;6.70;;;4.90;;
55800;SDS011;41730;51.960;20.158;2023-07-13T12:58:25;4.80;;;4.10;;
55800;SDS011;41730;51.960;20.158;2023-07-13T13:00:58;6.10;;;4.00;;
55800;SDS011;41730;51.960;20.158;2023-07-13T13:06:03;5.50;;;3.60;;
55800;SDS011;41730;51.960;20.158;2023-07-13T13:11:09;5.70;;;3.60;;
55800;SDS011;41730;51.960;20.158;2023-07-13T13:13:45;7.20;;;4.00;;
55800;SDS011;41730;51.960;20.158;2023-07-13T13:16:21;4.20;;;3.40;;
55800;SDS011;41730;51.960;20.158;2023-07-13T13:19:01;5.20;;;3.60;;
55800;SDS011;41730;51.960;20.158;2023-07-13T13:21:42;7.50;;;3.90;;
55800;SDS011;41730;51.960;20.158;2023-07-13T13:24:15;8.30;;;4.00;;
55800;SDS011;41730;51.960;20.158;2023-07-13T13:26:49;5.50;;;3.50;;
55800;SDS011;41730;51.960;20.158;2023-07-13T13:29:22;6.10;;;3.40;;
55800;SDS011;41730;51.960;20.158;2023-07-13T13:31:55;5.20;;;3.20;;
55800;SDS011;41730;51.960;20.158;2023-07-13T13:34:27;4.40;;;3.00;;
55800;SDS011;41730;51.960;20.158;2023-07-13T13:36:59;7.10;;;3.40;;
55800;SDS011;41730;51.960;20.158;2023-07-13T13:39:32;6.50;;;3.40;;
55800;SDS011;41730;51.960;20.158;2023-07-13T13:42:10;6.10;;;3.60;;
55800;SDS011;41730;51.960;20.158;2023-07-13T13:44:42;6.70;;;3.50;;
55800;SDS011;41730;51.960;20.158;2023-07-13T13:47:28;6.00;;;3.60;;
55800;SDS011;41730;51.960;20.158;2023-07-13T13:50:10;8.60;;;3.70;;
55800;SDS011;41730;51.960;20.158;2023-07-13T13:52:44;10.80;;;4.20;;
55800;SDS011;41730;51.960;20.158;2023-07-13T13:55:17;5.70;;;3.60;;
55800;SDS011;41730;51.960;20.158;2023-07-13T13:57:49;7.00;;;3.30;;
55800;SDS011;41730;51.960;20.158;2023-07-13T14:00:22;7.40;;;3.60;;
55800;SDS011;41730;51.960;20.158;2023-07-13T14:02:54;4.40;;;3.40;;
55800;SDS011;41730;51.960;20.158;2023-07-13T14:05:27;5.20;;;3.30;;
55800;SDS011;41730;51.960;20.158;2023-07-13T14:08:00;6.90;;;3.20;;
55800;SDS011;41730;51.960;20.158;2023-07-13T14:10:32;4.60;;;3.40;;
55800;SDS011;41730;51.960;20.158;2023-07-13T14:13:04;4.20;;;3.50;;
55800;SDS011;41730;51.960;20.158;2023-07-13T14:15:41;5.60;;;3.20;;
55800;SDS011;41730;51.960;20.158;2023-07-13T14:18:13;3.90;;;3.20;;
55800;SDS011;41730;51.960;20.158;2023-07-13T14:20:47;5.80;;;3.20;;
55800;SDS011;41730;51.960;20.158;2023-07-13T14:23:21;4.70;;;3.60;;
55800;SDS011;41730;51.960;20.158;2023-07-13T14:25:53;5.30;;;3.90;;
55800;SDS011;41730;51.960;20.158;2023-07-13T14:28:25;5.00;;;3.50;;
55800;SDS011;41730;51.960;20.158;2023-07-13T14:30:58;5.20;;;3.40;;
55800;SDS011;41730;51.960;20.158;2023-07-13T14:33:30;4.70;;;3.60;;
55800;SDS011;41730;51.960;20.158;2023-07-13T14:36:02;5.30;;;3.50;;
55800;SDS011;41730;51.960;20.158;2023-07-13T14:38:46;4.30;;;3.10;;
55800;SDS011;41730;51.960;20.158;2023-07-13T14:41:18;4.50;;;3.40;;
55800;SDS011;41730;51.960;20.158;2023-07-13T14:43:50;5.10;;;3.60;;
55800;SDS011;41730;51.960;20.158;2023-07-13T14:46:26;3.90;;;3.30;;
55800;SDS011;41730;51.960;20.158;2023-07-13T14:49:02;4.20;;;3.00;;
55800;SDS011;41730;51.960;20.158;2023-07-13T14:51:37;4.90;;;3.70;;
55800;SDS011;41730;51.960;20.158;2023-07-13T14:54:09;5.50;;;3.80;;
55800;SDS011;41730;51.960;20.158;2023-07-13T14:56:42;5.70;;;3.90;;
55800;SDS011;41730;51.960;20.158;2023-07-13T14:59:14;6.60;;;4.30;;
55800;SDS011;41730;51.960;20.158;2023-07-13T15:01:48;5.60;;;3.80;;
55800;SDS011;41730;51.960;20.158;2023-07-13T15:04:20;6.20;;;4.10;;
55800;SDS011;41730;51.960;20.158;2023-07-13T15:06:57;7.00;;;4.00;;
55800;SDS011;41730;51.960;20.158;2023-07-13T15:09:30;5.20;;;4.20;;
55800;SDS011;41730;51.960;20.158;2023-07-13T15:12:03;6.30;;;4.50;;
55800;SDS011;41730;51.960;20.158;2023-07-13T15:14:37;8.40;;;4.40;;
55800;SDS011;41730;51.960;20.158;2023-07-13T15:17:17;6.30;;;4.10;;
55800;SDS011;41730;51.960;20.158;2023-07-13T15:19:56;5.90;;;4.30;;
55800;SDS011;41730;51.960;20.158;2023-07-13T15:22:28;7.70;;;4.50;;
55800;SDS011;41730;51.960;20.158;2023-07-13T15:25:00;6.00;;;4.10;;